createdAt,value
2022-08-27T00:00:48.342Z,20.50
2022-08-27T00:03:15.822Z,20.46
2022-08-27T00:05:43.421Z,20.46
2022-08-27T00:08:13.154Z,20.48
2022-08-27T00:10:41.002Z,20.54
2022-08-27T00:13:08.571Z,20.55
2022-08-27T00:15:35.736Z,20.56
2022-08-27T00:18:02.866Z,20.51
2022-08-27T00:20:30.065Z,20.54
2022-08-27T00:22:56.985Z,20.54
2022-08-27T00:25:24.057Z,20.47
2022-08-27T00:27:51.318Z,20.53
2022-08-27T00:30:20.972Z,20.46
2022-08-27T00:32:48.479Z,20.44
2022-08-27T00:35:16.662Z,20.46
2022-08-27T00:37:44.434Z,20.50
2022-08-27T00:40:15.782Z,20.47
2022-08-27T00:42:45.857Z,20.46
2022-08-27T00:45:15.956Z,20.48
2022-08-27T00:47:50.204Z,20.45
2022-08-27T00:50:23.736Z,20.47
2022-08-27T00:52:57.614Z,20.44
2022-08-27T00:55:28.693Z,20.49
2022-08-27T00:58:07.781Z,20.47
2022-08-27T01:00:35.428Z,20.49
2022-08-27T01:03:02.254Z,20.56
2022-08-27T01:05:29.366Z,20.54
2022-08-27T01:08:03.700Z,20.56
2022-08-27T01:10:30.991Z,20.49
2022-08-27T01:12:57.958Z,20.44
2022-08-27T01:15:27.814Z,20.44
2022-08-27T01:17:56.585Z,20.32
2022-08-27T01:20:28.672Z,20.34
2022-08-27T01:23:17.795Z,20.34
2022-08-27T01:25:45.842Z,20.34
2022-08-27T01:28:13.721Z,20.37
2022-08-27T01:30:41.411Z,20.33
2022-08-27T01:33:16.957Z,20.27
2022-08-27T01:35:47.104Z,20.28
2022-08-27T01:38:29.991Z,20.32
2022-08-27T01:40:59.324Z,20.31
2022-08-27T01:43:27.853Z,20.29
2022-08-27T01:45:54.757Z,20.29
2022-08-27T01:48:22.839Z,20.36
2022-08-27T01:50:49.874Z,20.29
2022-08-27T01:53:22.697Z,20.20
2022-08-27T01:55:54.366Z,20.25
2022-08-27T01:58:26.904Z,20.27
2022-08-27T02:00:56.983Z,20.34
2022-08-27T02:03:24.707Z,20.31
2022-08-27T02:05:52.061Z,20.29
2022-08-27T02:08:19.267Z,20.27
2022-08-27T02:10:47.671Z,20.16
2022-08-27T02:13:14.849Z,20.21
2022-08-27T02:15:42.645Z,20.22
2022-08-27T02:18:10.808Z,20.20
2022-08-27T02:20:37.999Z,20.30
2022-08-27T02:23:04.971Z,20.37
2022-08-27T02:25:32.072Z,20.37
2022-08-27T02:28:00.342Z,20.41
2022-08-27T02:30:32.082Z,20.33
2022-08-27T02:33:01.053Z,20.31
2022-08-27T02:35:28.688Z,20.37
2022-08-27T02:37:55.864Z,20.33
2022-08-27T02:40:23.402Z,20.36
2022-08-27T02:42:50.882Z,20.41
2022-08-27T02:45:18.619Z,20.46
2022-08-27T02:47:45.786Z,20.51
2022-08-27T02:50:14.379Z,20.45
2022-08-27T02:52:41.648Z,20.46
2022-08-27T02:55:08.793Z,20.34
2022-08-27T02:57:36.817Z,20.34
2022-08-27T03:00:12.048Z,20.40
2022-08-27T03:02:39.117Z,20.40
2022-08-27T03:05:07.880Z,20.42
2022-08-27T03:07:34.883Z,20.42
2022-08-27T03:10:01.910Z,20.33
2022-08-27T03:12:28.745Z,20.29
2022-08-27T03:14:55.674Z,20.36
2022-08-27T03:17:40.842Z,20.43
2022-08-27T03:20:09.124Z,20.44
2022-08-27T03:22:35.974Z,20.47
2022-08-27T03:25:04.743Z,20.49
2022-08-27T03:27:31.754Z,20.49
2022-08-27T03:30:03.118Z,20.47
2022-08-27T03:32:31.061Z,20.43
2022-08-27T03:34:58.795Z,20.41
2022-08-27T03:37:26.391Z,20.39
2022-08-27T03:39:53.438Z,20.42
2022-08-27T03:42:20.657Z,20.45
2022-08-27T03:44:48.100Z,20.45
2022-08-27T03:47:15.814Z,20.53
2022-08-27T03:49:42.711Z,20.53
2022-08-27T03:52:10.416Z,20.51
2022-08-27T03:54:38.320Z,20.46
2022-08-27T03:57:05.979Z,20.40
2022-08-27T03:59:33.414Z,20.40
2022-08-27T04:02:01.671Z,20.40
2022-08-27T04:04:28.449Z,20.33
2022-08-27T04:06:55.202Z,20.35
2022-08-27T04:09:26.220Z,20.41
2022-08-27T04:11:53.163Z,20.35
2022-08-27T04:14:26.860Z,20.40
2022-08-27T04:16:57.395Z,20.48
2022-08-27T04:19:28.074Z,20.47
2022-08-27T04:22:02.639Z,20.53
2022-08-27T04:24:31.909Z,20.39
2022-08-27T04:27:00.065Z,20.49
2022-08-27T04:29:27.260Z,20.54
2022-08-27T04:31:54.906Z,20.49
2022-08-27T04:34:22.115Z,20.39
2022-08-27T04:36:50.156Z,20.43
2022-08-27T04:39:17.120Z,20.45
2022-08-27T04:41:43.999Z,20.48
2022-08-27T04:44:11.156Z,20.50
2022-08-27T04:46:40.424Z,20.53
2022-08-27T04:49:10.717Z,20.58
2022-08-27T04:51:40.150Z,20.55
2022-08-27T04:54:08.171Z,20.51
2022-08-27T04:56:36.605Z,20.49
2022-08-27T04:59:06.923Z,20.51
2022-08-27T05:01:34.137Z,20.57
2022-08-27T05:04:01.058Z,20.55
2022-08-27T05:06:27.886Z,20.59
2022-08-27T05:08:55.617Z,20.62
2022-08-27T05:11:24.842Z,20.48
2022-08-27T05:13:51.764Z,20.48
2022-08-27T05:16:21.805Z,20.54
2022-08-27T05:18:50.437Z,20.48
2022-08-27T05:21:31.801Z,20.53
2022-08-27T05:24:00.893Z,20.55
2022-08-27T05:26:28.887Z,20.51
2022-08-27T05:28:55.835Z,20.57
2022-08-27T05:31:22.946Z,20.63
2022-08-27T05:33:50.137Z,20.68
2022-08-27T05:36:20.965Z,20.65
2022-08-27T05:38:49.326Z,20.66
2022-08-27T05:41:19.219Z,20.70
2022-08-27T05:43:50.218Z,20.66
2022-08-27T05:46:20.424Z,20.64
2022-08-27T05:48:48.817Z,20.64
2022-08-27T05:51:28.360Z,20.57
2022-08-27T05:53:57.555Z,20.65
2022-08-27T05:56:25.638Z,20.63
2022-08-27T05:59:11.042Z,20.58
2022-08-27T06:01:41.543Z,20.58
2022-08-27T06:04:09.461Z,20.62
2022-08-27T06:06:38.901Z,20.64
2022-08-27T06:09:07.460Z,20.69
2022-08-27T06:11:34.625Z,20.62
2022-08-27T06:14:01.384Z,20.63
2022-08-27T06:16:28.122Z,20.65
2022-08-27T06:18:57.263Z,20.71
2022-08-27T06:21:25.087Z,20.69
2022-08-27T06:23:54.459Z,20.72
2022-08-27T06:26:23.511Z,20.80
2022-08-27T06:28:50.894Z,20.84
2022-08-27T06:31:24.097Z,20.88
2022-08-27T06:33:52.051Z,20.89
2022-08-27T06:36:25.582Z,20.90
2022-08-27T06:38:53.507Z,20.94
2022-08-27T06:41:24.038Z,20.99
2022-08-27T06:43:52.201Z,20.99
2022-08-27T06:46:22.136Z,20.98
2022-08-27T06:48:55.941Z,20.89
2022-08-27T06:51:31.471Z,20.93
2022-08-27T06:54:00.425Z,20.80
2022-08-27T06:56:27.648Z,20.86
2022-08-27T06:59:00.484Z,20.86
2022-08-27T07:01:34.316Z,20.90
2022-08-27T07:04:04.702Z,20.76
2022-08-27T07:06:34.948Z,20.71
2022-08-27T07:09:01.878Z,20.68
2022-08-27T07:11:31.927Z,20.63
2022-08-27T07:13:59.194Z,20.59
2022-08-27T07:16:28.456Z,20.51
2022-08-27T07:18:59.010Z,20.50
2022-08-27T07:21:30.727Z,20.51
2022-08-27T07:24:04.495Z,20.46
2022-08-27T07:26:33.630Z,20.45
2022-08-27T07:29:00.839Z,20.51
2022-08-27T07:31:28.125Z,20.41
2022-08-27T07:33:55.401Z,20.56
2022-08-27T07:36:23.308Z,20.68
2022-08-27T07:39:00.831Z,20.64
2022-08-27T07:41:30.966Z,20.66
2022-08-27T07:44:19.908Z,20.54
2022-08-27T07:46:49.252Z,20.60
2022-08-27T07:49:20.109Z,20.54
2022-08-27T07:51:47.339Z,20.58
2022-08-27T07:54:15.301Z,20.49
2022-08-27T07:56:42.676Z,20.55
2022-08-27T07:59:21.725Z,20.58
2022-08-27T08:01:51.311Z,20.61
2022-08-27T08:04:20.413Z,20.73
2022-08-27T08:06:47.864Z,20.72
2022-08-27T08:09:14.735Z,20.57
2022-08-27T08:11:41.996Z,20.76
2022-08-27T08:14:08.808Z,20.69
2022-08-27T08:16:35.559Z,20.63
2022-08-27T08:19:02.443Z,20.64
2022-08-27T08:21:29.198Z,20.55
2022-08-27T08:23:56.050Z,20.61
2022-08-27T08:26:23.867Z,20.56
2022-08-27T08:28:50.708Z,20.49
2022-08-27T08:31:17.943Z,20.45
2022-08-27T08:33:47.681Z,20.39
2022-08-27T08:36:16.585Z,20.33
2022-08-27T08:38:45.229Z,20.47
2022-08-27T08:41:51.500Z,20.43
2022-08-27T08:44:43.128Z,20.39
2022-08-27T08:47:19.870Z,20.27
2022-08-27T08:49:56.166Z,20.35
2022-08-27T08:52:35.549Z,20.45
2022-08-27T08:55:39.422Z,20.59
2022-08-27T08:58:25.282Z,20.55
2022-08-27T09:00:59.124Z,20.59
2022-08-27T09:03:27.556Z,20.59
2022-08-27T09:06:10.415Z,20.73
2022-08-27T09:08:42.021Z,20.84
2022-08-27T09:11:28.745Z,20.71
2022-08-27T09:14:24.729Z,20.69
2022-08-27T09:16:56.568Z,20.68
2022-08-27T09:19:24.673Z,20.47
2022-08-27T09:22:03.129Z,20.61
2022-08-27T09:24:42.291Z,20.62
2022-08-27T09:27:12.575Z,20.64
2022-08-27T09:29:51.680Z,20.60
2022-08-27T09:32:27.124Z,20.56
2022-08-27T09:34:58.308Z,20.46
2022-08-27T09:37:38.923Z,20.56
2022-08-27T09:40:31.966Z,20.79
2022-08-27T09:43:20.763Z,20.85
2022-08-27T09:45:59.668Z,20.64
2022-08-27T09:48:32.208Z,20.83
2022-08-27T09:51:12.473Z,20.76
2022-08-27T09:53:59.984Z,20.79
2022-08-27T09:56:31.288Z,20.88
2022-08-27T09:59:06.515Z,20.90
2022-08-27T10:01:35.864Z,20.74
2022-08-27T10:04:10.951Z,20.94
2022-08-27T10:06:39.036Z,20.95
2022-08-27T10:09:14.685Z,21.02
2022-08-27T10:11:50.437Z,21.11
2022-08-27T10:14:40.554Z,21.25
2022-08-27T10:17:18.006Z,21.46
2022-08-27T10:19:54.103Z,21.33
2022-08-27T10:22:47.101Z,21.61
2022-08-27T10:25:32.838Z,21.59
2022-08-27T10:28:38.935Z,21.73
2022-08-27T10:31:17.928Z,21.62
2022-08-27T10:33:54.023Z,21.49
2022-08-27T10:36:21.953Z,21.58
2022-08-27T10:39:03.807Z,21.77
2022-08-27T10:41:42.053Z,22.08
2022-08-27T10:44:31.813Z,22.20
2022-08-27T10:47:10.450Z,22.26
2022-08-27T10:49:40.178Z,21.88
2022-08-27T10:52:12.646Z,21.90
2022-08-27T10:54:49.972Z,22.10
2022-08-27T10:57:58.962Z,22.32
2022-08-27T11:00:43.029Z,22.38
2022-08-27T11:03:27.670Z,23.49
2022-08-27T11:06:05.813Z,23.91
2022-08-27T11:08:39.607Z,25.18
2022-08-27T11:12:03.345Z,24.98
2022-08-27T11:14:22.219Z,24.23
2022-08-27T11:16:55.238Z,24.21
2022-08-27T11:19:32.442Z,23.73
2022-08-27T11:22:04.257Z,23.47
2022-08-27T11:24:35.199Z,23.49
2022-08-27T11:27:06.091Z,23.31
2022-08-27T11:29:49.631Z,23.82
2022-08-27T11:32:49.291Z,23.86
2022-08-27T11:35:30.898Z,23.44
2022-08-27T11:38:13.955Z,23.20
2022-08-27T11:40:43.774Z,23.02
2022-08-27T11:43:18.721Z,22.93
2022-08-27T11:46:00.593Z,23.35
2022-08-27T11:48:30.718Z,23.44
2022-08-27T11:51:04.771Z,23.43
2022-08-27T11:53:34.638Z,23.01
2022-08-27T11:56:41.547Z,22.95
2022-08-27T11:59:26.597Z,22.91
2022-08-27T12:02:10.038Z,23.02
2022-08-27T12:04:38.582Z,22.86
2022-08-27T12:07:14.742Z,23.11
2022-08-27T12:09:56.504Z,23.12
2022-08-27T12:12:53.149Z,23.05
2022-08-27T12:15:38.799Z,22.87
2022-08-27T12:18:26.778Z,22.80
2022-08-27T12:20:56.584Z,22.35
2022-08-27T12:23:44.018Z,22.35
2022-08-27T12:26:26.017Z,22.22
2022-08-27T12:29:24.105Z,22.20
2022-08-27T12:32:01.423Z,22.32
2022-08-27T12:34:30.027Z,22.52
2022-08-27T12:36:56.842Z,22.52
2022-08-27T12:39:37.538Z,22.72
2022-08-27T12:42:12.973Z,22.68
2022-08-27T12:44:39.920Z,22.97
2022-08-27T12:47:11.928Z,23.34
2022-08-27T12:49:58.016Z,23.52
2022-08-27T12:52:53.064Z,23.50
2022-08-27T12:55:45.250Z,23.70
2022-08-27T12:58:36.765Z,24.03
2022-08-27T13:01:36.588Z,23.90
2022-08-27T13:04:24.457Z,24.01
2022-08-27T13:06:51.863Z,23.83
2022-08-27T13:09:33.689Z,23.72
2022-08-27T13:12:01.975Z,23.73
2022-08-27T13:14:36.862Z,23.77
2022-08-27T13:17:09.911Z,23.89
2022-08-27T13:19:51.217Z,23.69
2022-08-27T13:22:29.050Z,23.45
2022-08-27T13:24:56.823Z,23.12
2022-08-27T13:27:36.165Z,23.13
2022-08-27T13:30:11.971Z,23.30
2022-08-27T13:32:59.784Z,22.99
2022-08-27T13:35:26.699Z,22.95
2022-08-27T13:37:54.624Z,22.64
2022-08-27T13:40:28.882Z,22.55
2022-08-27T13:43:09.095Z,22.56
2022-08-27T13:45:39.036Z,22.38
2022-08-27T13:48:06.663Z,22.44
2022-08-27T13:50:35.077Z,22.17
2022-08-27T13:53:27.307Z,22.20
2022-08-27T13:55:55.756Z,21.89
2022-08-27T13:58:31.454Z,21.73
2022-08-27T14:01:16.257Z,21.70
2022-08-27T14:03:57.675Z,21.78
2022-08-27T14:06:45.258Z,21.42
2022-08-27T14:09:27.864Z,21.38
2022-08-27T14:12:05.430Z,21.33
2022-08-27T14:14:41.135Z,21.23
2022-08-27T14:17:25.726Z,21.17
2022-08-27T14:20:00.643Z,21.32
2022-08-27T14:22:27.896Z,21.18
2022-08-27T14:24:54.624Z,21.18
2022-08-27T14:27:21.320Z,21.09
2022-08-27T14:29:49.566Z,21.13
2022-08-27T14:32:19.033Z,21.13
2022-08-27T14:34:46.240Z,21.10
2022-08-27T14:37:14.576Z,21.20
2022-08-27T14:39:43.350Z,21.16
2022-08-27T14:42:12.434Z,21.27
2022-08-27T14:44:39.175Z,21.05
2022-08-27T14:47:09.518Z,21.13
2022-08-27T14:49:39.785Z,21.13
2022-08-27T14:52:07.913Z,20.96
2022-08-27T14:54:35.090Z,21.00
2022-08-27T14:57:03.081Z,21.08
2022-08-27T14:59:30.052Z,21.02
2022-08-27T15:01:58.877Z,20.95
2022-08-27T15:04:26.645Z,20.88
2022-08-27T15:06:55.243Z,20.94
2022-08-27T15:09:22.444Z,21.08
2022-08-27T15:11:50.039Z,21.07
2022-08-27T15:14:23.574Z,21.08
2022-08-27T15:16:50.655Z,21.23
2022-08-27T15:19:17.348Z,21.18
2022-08-27T15:21:47.116Z,21.20
2022-08-27T15:24:25.839Z,21.13
2022-08-27T15:26:57.401Z,21.33
2022-08-27T15:29:25.626Z,21.50
2022-08-27T15:31:52.849Z,21.68
2022-08-27T15:34:19.570Z,21.58
2022-08-27T15:36:46.495Z,21.45
2022-08-27T15:39:13.192Z,21.58
2022-08-27T15:42:03.043Z,21.69
2022-08-27T15:44:29.051Z,21.58
2022-08-27T15:46:56.101Z,21.62
2022-08-27T15:49:22.808Z,21.49
2022-08-27T15:51:49.638Z,21.49
2022-08-27T15:54:19.017Z,21.35
2022-08-27T15:56:45.752Z,21.39
2022-08-27T15:59:12.633Z,21.27
2022-08-27T16:01:39.793Z,21.08
2022-08-27T16:04:07.156Z,21.20
2022-08-27T16:06:34.857Z,21.30
2022-08-27T16:09:02.380Z,21.15
2022-08-27T16:11:29.685Z,21.16
2022-08-27T16:13:56.444Z,21.08
2022-08-27T16:16:27.716Z,21.15
2022-08-27T16:18:54.903Z,21.13
2022-08-27T16:21:21.809Z,21.23
2022-08-27T16:23:48.807Z,21.10
2022-08-27T16:26:16.561Z,21.06
2022-08-27T16:28:44.081Z,20.90
2022-08-27T16:31:13.114Z,20.89
2022-08-27T16:33:41.787Z,20.72
2022-08-27T16:36:09.305Z,20.80
2022-08-27T16:38:36.605Z,20.77
2022-08-27T16:41:05.100Z,20.76
2022-08-27T16:43:32.420Z,20.85
2022-08-27T16:46:00.441Z,20.79
2022-08-27T16:48:46.824Z,20.64
2022-08-27T16:51:22.823Z,20.71
2022-08-27T16:53:51.026Z,20.78
2022-08-27T16:56:20.542Z,20.65
2022-08-27T16:58:52.974Z,20.70
2022-08-27T17:01:23.010Z,20.66
2022-08-27T17:04:08.978Z,20.66
2022-08-27T17:06:40.997Z,20.73
2022-08-27T17:09:10.318Z,20.71
2022-08-27T17:11:41.761Z,20.75
2022-08-27T17:14:10.648Z,20.70
2022-08-27T17:16:37.620Z,20.75
2022-08-27T17:19:06.515Z,20.74
2022-08-27T17:21:34.752Z,20.68
2022-08-27T17:24:02.627Z,20.60
2022-08-27T17:26:31.682Z,20.75
2022-08-27T17:28:59.026Z,20.74
2022-08-27T17:31:34.840Z,20.80
2022-08-27T17:34:01.565Z,20.79
2022-08-27T17:36:29.906Z,20.72
2022-08-27T17:38:56.786Z,20.77
2022-08-27T17:41:33.864Z,20.63
2022-08-27T17:44:06.582Z,20.72
2022-08-27T17:46:33.366Z,20.70
2022-08-27T17:49:00.145Z,20.63
2022-08-27T17:51:27.945Z,20.66
2022-08-27T17:54:00.905Z,20.63
2022-08-27T17:56:29.517Z,20.62
2022-08-27T17:58:56.747Z,20.50
2022-08-27T18:01:32.163Z,20.49
2022-08-27T18:03:59.788Z,20.45
2022-08-27T18:06:28.192Z,20.47
2022-08-27T18:08:55.115Z,20.50
2022-08-27T18:11:22.062Z,20.47
2022-08-27T18:13:53.983Z,20.46
2022-08-27T18:16:21.602Z,20.40
2022-08-27T18:18:48.447Z,20.44
2022-08-27T18:21:17.585Z,20.31
2022-08-27T18:23:52.184Z,20.40
2022-08-27T18:26:21.564Z,20.35
2022-08-27T18:28:49.026Z,20.26
2022-08-27T18:31:19.808Z,20.31
2022-08-27T18:33:46.930Z,20.27
2022-08-27T18:36:14.881Z,20.21
2022-08-27T18:38:41.804Z,20.12
2022-08-27T18:41:09.157Z,20.07
2022-08-27T18:43:36.546Z,20.06
2022-08-27T18:46:04.787Z,20.09
2022-08-27T18:48:32.302Z,20.07
2022-08-27T18:51:01.580Z,20.01
2022-08-27T18:53:32.276Z,19.96
2022-08-27T18:55:59.319Z,19.89
2022-08-27T18:58:26.615Z,19.75
2022-08-27T19:00:58.015Z,19.82
2022-08-27T19:03:29.288Z,19.83
2022-08-27T19:05:56.346Z,19.82
2022-08-27T19:08:24.309Z,19.75
2022-08-27T19:10:51.069Z,19.80
2022-08-27T19:13:17.907Z,19.82
2022-08-27T19:15:52.275Z,19.68
2022-08-27T19:18:19.435Z,19.67
2022-08-27T19:20:47.051Z,19.68
2022-08-27T19:23:13.816Z,19.59
2022-08-27T19:25:40.769Z,19.54
2022-08-27T19:28:07.595Z,19.52
2022-08-27T19:30:35.579Z,19.54
2022-08-27T19:33:02.343Z,19.50
2022-08-27T19:35:29.202Z,19.41
2022-08-27T19:37:55.962Z,19.36
2022-08-27T19:40:22.978Z,19.35
2022-08-27T19:42:50.738Z,19.38
2022-08-27T19:45:23.129Z,19.35
2022-08-27T19:47:53.857Z,19.31
2022-08-27T19:50:21.970Z,19.24
2022-08-27T19:52:49.847Z,19.25
2022-08-27T19:55:17.148Z,19.13
2022-08-27T19:57:44.790Z,19.14
2022-08-27T20:00:17.512Z,19.12
2022-08-27T20:02:44.207Z,19.12
2022-08-27T20:05:19.252Z,19.07
2022-08-27T20:07:51.909Z,19.08
2022-08-27T20:10:21.804Z,19.07
2022-08-27T20:12:49.794Z,19.00
2022-08-27T20:15:17.457Z,19.00
2022-08-27T20:17:45.233Z,18.93
2022-08-27T20:20:13.246Z,18.84
2022-08-27T20:22:40.295Z,18.73
2022-08-27T20:25:07.998Z,18.77
2022-08-27T20:27:34.926Z,18.76
2022-08-27T20:30:03.631Z,18.68
2022-08-27T20:32:30.847Z,18.67
2022-08-27T20:34:57.725Z,18.63
2022-08-27T20:37:24.707Z,18.51
2022-08-27T20:39:52.517Z,18.49
2022-08-27T20:42:20.544Z,18.48
2022-08-27T20:44:47.853Z,18.42
2022-08-27T20:47:16.561Z,18.37
2022-08-27T20:49:44.642Z,18.33
2022-08-27T20:52:12.999Z,18.26
2022-08-27T20:54:40.729Z,18.23
2022-08-27T20:57:08.726Z,18.18
2022-08-27T20:59:54.019Z,18.10
2022-08-27T21:02:23.613Z,18.05
2022-08-27T21:04:51.325Z,18.03
2022-08-27T21:07:20.299Z,18.00
2022-08-27T21:09:55.991Z,18.00
2022-08-27T21:12:29.011Z,17.98
2022-08-27T21:14:58.054Z,17.99
2022-08-27T21:17:27.409Z,17.93
2022-08-27T21:19:54.647Z,17.89
2022-08-27T21:22:22.821Z,17.93
2022-08-27T21:24:49.741Z,17.97
2022-08-27T21:27:17.733Z,18.02
2022-08-27T21:29:45.056Z,18.06
2022-08-27T21:32:13.517Z,18.11
2022-08-27T21:34:41.829Z,18.13
2022-08-27T21:37:10.451Z,18.15
2022-08-27T21:39:37.700Z,18.19
2022-08-27T21:42:04.891Z,18.25
2022-08-27T21:44:31.737Z,18.21
2022-08-27T21:46:58.816Z,18.21
2022-08-27T21:49:25.518Z,18.21
2022-08-27T21:51:52.423Z,18.05
2022-08-27T21:54:19.599Z,18.14
2022-08-27T21:56:46.607Z,18.21
2022-08-27T21:59:13.363Z,18.15
2022-08-27T22:01:40.582Z,18.15
2022-08-27T22:04:07.316Z,18.13
2022-08-27T22:06:34.276Z,18.12
2022-08-27T22:09:01.301Z,18.06
2022-08-27T22:11:30.626Z,18.09
2022-08-27T22:13:58.376Z,18.08
2022-08-27T22:16:25.135Z,18.07
2022-08-27T22:18:54.541Z,18.11
2022-08-27T22:21:25.840Z,18.07
2022-08-27T22:23:52.595Z,18.02
2022-08-27T22:26:21.058Z,17.94
2022-08-27T22:28:48.220Z,17.90
2022-08-27T22:31:15.814Z,17.83
2022-08-27T22:33:42.857Z,17.81
2022-08-27T22:36:09.539Z,17.77
2022-08-27T22:38:36.290Z,17.77
2022-08-27T22:41:03.155Z,17.70
2022-08-27T22:43:30.527Z,17.74
2022-08-27T22:45:57.518Z,17.69
2022-08-27T22:48:24.457Z,17.65
2022-08-27T22:50:51.200Z,17.56
2022-08-27T22:53:17.991Z,17.54
2022-08-27T22:55:49.937Z,17.58
2022-08-27T22:58:17.952Z,17.52
2022-08-27T23:00:50.786Z,17.50
2022-08-27T23:03:19.994Z,17.49
2022-08-27T23:05:47.085Z,17.48
2022-08-27T23:08:14.559Z,17.45
2022-08-27T23:10:42.716Z,17.47
2022-08-27T23:13:10.590Z,17.39
2022-08-27T23:15:38.638Z,17.41
2022-08-27T23:18:05.760Z,17.30
2022-08-27T23:20:32.810Z,17.29
2022-08-27T23:22:59.653Z,17.24
2022-08-27T23:25:45.407Z,17.24
2022-08-27T23:28:15.046Z,17.32
2022-08-27T23:30:43.281Z,17.35
2022-08-27T23:33:10.042Z,17.38
2022-08-27T23:35:37.056Z,17.33
2022-08-27T23:38:04.124Z,17.31
2022-08-27T23:40:31.092Z,17.25
2022-08-27T23:42:57.892Z,17.29
2022-08-27T23:45:26.045Z,17.10
2022-08-27T23:47:53.044Z,17.25
2022-08-27T23:50:21.858Z,17.11
2022-08-27T23:52:54.052Z,17.17
2022-08-27T23:55:22.220Z,17.13
2022-08-27T23:57:49.931Z,17.16
